Terminal Aerodrome Forecast
Issued by NWS Norman, OK

Home | Current Version | Previous Version | Text Only | Print | Product List | Glossary On
Versions: 1 2 3 4 5 6 7 8 9 10 11 12 13 14 15 16 17 18 19 20 21 22 23 24 25 26 27 28 29 30 31 32
598
FTUS44 KOUN 291721
TAFOKC
TAF
KOKC 291721Z 2918/3018 16008KT P6SM BKN070 BKN120 OVC200
     FM300000 12008KT P6SM SCT050 BKN250
     FM300900 14006KT P6SM OVC090 PROB30 3009/3014 03020KT 2SM -TSRA
      OVC050CB=

USA.gov is the U.S. government's official web portal to all federal, state and local government web resources and services.